sensor_id;sensor_type;location;lat;lon;timestamp;P1;durP1;ratioP1;P2;durP2;ratioP2
1887;SDS011;944;51.574;6.980;2023-06-22T01:40:08;14.27;;;9.77;;
1887;SDS011;944;51.574;6.980;2023-06-22T01:42:36;13.33;;;8.80;;
1887;SDS011;944;51.574;6.980;2023-06-22T01:45:05;16.50;;;9.60;;
1887;SDS011;944;51.574;6.980;2023-06-22T01:47:33;22.97;;;9.93;;
1887;SDS011;944;51.574;6.980;2023-06-22T01:50:01;13.23;;;10.73;;
1887;SDS011;944;51.574;6.980;2023-06-22T01:52:28;14.43;;;9.50;;
1887;SDS011;944;51.574;6.980;2023-06-22T01:54:55;13.70;;;9.70;;
1887;SDS011;944;51.574;6.980;2023-06-22T01:57:26;14.17;;;10.83;;
1887;SDS011;944;51.574;6.980;2023-06-22T01:59:57;17.77;;;10.80;;
1887;SDS011;944;51.574;6.980;2023-06-22T02:02:28;13.43;;;10.07;;
1887;SDS011;944;51.574;6.980;2023-06-22T02:05:05;16.37;;;10.60;;
1887;SDS011;944;51.574;6.980;2023-06-22T02:07:37;16.70;;;11.30;;
1887;SDS011;944;51.574;6.980;2023-06-22T02:10:11;17.47;;;12.00;;
1887;SDS011;944;51.574;6.980;2023-06-22T02:12:43;15.00;;;10.60;;
1887;SDS011;944;51.574;6.980;2023-06-22T02:15:11;17.50;;;11.23;;
1887;SDS011;944;51.574;6.980;2023-06-22T02:17:40;13.17;;;10.23;;
1887;SDS011;944;51.574;6.980;2023-06-22T02:20:12;20.97;;;11.57;;
1887;SDS011;944;51.574;6.980;2023-06-22T02:22:39;15.90;;;10.83;;
1887;SDS011;944;51.574;6.980;2023-06-22T02:25:07;13.40;;;11.10;;
1887;SDS011;944;51.574;6.980;2023-06-22T02:27:36;23.93;;;11.40;;
1887;SDS011;944;51.574;6.980;2023-06-22T02:30:08;15.00;;;10.87;;
1887;SDS011;944;51.574;6.980;2023-06-22T02:32:36;14.30;;;10.63;;
1887;SDS011;944;51.574;6.980;2023-06-22T02:35:07;17.33;;;12.90;;
1887;SDS011;944;51.574;6.980;2023-06-22T02:37:37;15.67;;;10.80;;
1887;SDS011;944;51.574;6.980;2023-06-22T02:40:07;16.13;;;11.33;;
1887;SDS011;944;51.574;6.980;2023-06-22T02:42:35;16.67;;;11.70;;
1887;SDS011;944;51.574;6.980;2023-06-22T02:45:04;22.33;;;11.53;;
1887;SDS011;944;51.574;6.980;2023-06-22T02:47:38;13.80;;;10.43;;
1887;SDS011;944;51.574;6.980;2023-06-22T02:50:06;18.23;;;12.73;;
1887;SDS011;944;51.574;6.980;2023-06-22T02:52:34;17.07;;;11.03;;
1887;SDS011;944;51.574;6.980;2023-06-22T02:55:02;15.97;;;11.97;;
1887;SDS011;944;51.574;6.980;2023-06-22T02:57:29;19.33;;;13.37;;
1887;SDS011;944;51.574;6.980;2023-06-22T02:59:56;18.67;;;12.90;;
1887;SDS011;944;51.574;6.980;2023-06-22T03:02:25;17.83;;;12.83;;
1887;SDS011;944;51.574;6.980;2023-06-22T03:04:52;17.80;;;12.90;;
1887;SDS011;944;51.574;6.980;2023-06-22T03:07:20;19.27;;;13.30;;
1887;SDS011;944;51.574;6.980;2023-06-22T03:09:47;15.47;;;12.60;;
1887;SDS011;944;51.574;6.980;2023-06-22T03:12:14;22.03;;;14.33;;
1887;SDS011;944;51.574;6.980;2023-06-22T03:14:41;16.30;;;12.70;;
1887;SDS011;944;51.574;6.980;2023-06-22T03:17:09;15.27;;;12.90;;
1887;SDS011;944;51.574;6.980;2023-06-22T03:19:38;23.57;;;14.77;;
1887;SDS011;944;51.574;6.980;2023-06-22T03:22:05;23.80;;;13.03;;
1887;SDS011;944;51.574;6.980;2023-06-22T03:24:32;19.60;;;13.83;;
1887;SDS011;944;51.574;6.980;2023-06-22T03:26:59;19.67;;;15.03;;
1887;SDS011;944;51.574;6.980;2023-06-22T03:29:30;19.23;;;13.33;;
1887;SDS011;944;51.574;6.980;2023-06-22T03:31:57;21.17;;;13.70;;
1887;SDS011;944;51.574;6.980;2023-06-22T03:34:24;19.33;;;14.13;;
1887;SDS011;944;51.574;6.980;2023-06-22T03:36:52;25.30;;;14.10;;
1887;SDS011;944;51.574;6.980;2023-06-22T03:39:20;16.73;;;14.33;;
1887;SDS011;944;51.574;6.980;2023-06-22T03:41:48;20.93;;;13.40;;
1887;SDS011;944;51.574;6.980;2023-06-22T03:44:15;17.13;;;12.00;;
1887;SDS011;944;51.574;6.980;2023-06-22T03:46:44;19.30;;;13.83;;
1887;SDS011;944;51.574;6.980;2023-06-22T03:49:11;21.40;;;13.97;;
1887;SDS011;944;51.574;6.980;2023-06-22T03:51:38;18.97;;;15.17;;
1887;SDS011;944;51.574;6.980;2023-06-22T03:54:09;19.50;;;14.60;;
1887;SDS011;944;51.574;6.980;2023-06-22T03:56:44;21.83;;;13.50;;
1887;SDS011;944;51.574;6.980;2023-06-22T03:59:28;21.70;;;15.37;;
1887;SDS011;944;51.574;6.980;2023-06-22T04:01:55;16.80;;;13.97;;
1887;SDS011;944;51.574;6.980;2023-06-22T04:04:27;19.67;;;13.20;;
1887;SDS011;944;51.574;6.980;2023-06-22T04:06:54;20.97;;;14.20;;
1887;SDS011;944;51.574;6.980;2023-06-22T04:09:23;17.33;;;13.60;;
1887;SDS011;944;51.574;6.980;2023-06-22T04:11:50;21.70;;;14.60;;
1887;SDS011;944;51.574;6.980;2023-06-22T04:14:17;19.10;;;14.77;;
1887;SDS011;944;51.574;6.980;2023-06-22T04:16:46;16.40;;;13.00;;
1887;SDS011;944;51.574;6.980;2023-06-22T04:19:15;26.43;;;14.60;;
1887;SDS011;944;51.574;6.980;2023-06-22T04:21:45;20.57;;;14.40;;
1887;SDS011;944;51.574;6.980;2023-06-22T04:24:13;19.83;;;13.87;;
1887;SDS011;944;51.574;6.980;2023-06-22T04:26:43;19.77;;;14.87;;
1887;SDS011;944;51.574;6.980;2023-06-22T04:29:12;19.60;;;13.40;;
1887;SDS011;944;51.574;6.980;2023-06-22T04:31:39;17.50;;;13.90;;
1887;SDS011;944;51.574;6.980;2023-06-22T04:34:07;19.87;;;13.03;;
1887;SDS011;944;51.574;6.980;2023-06-22T04:36:38;20.37;;;15.93;;
1887;SDS011;944;51.574;6.980;2023-06-22T04:39:07;21.27;;;15.53;;
1887;SDS011;944;51.574;6.980;2023-06-22T04:41:36;19.90;;;14.70;;
1887;SDS011;944;51.574;6.980;2023-06-22T04:44:13;21.13;;;14.70;;
1887;SDS011;944;51.574;6.980;2023-06-22T04:46:48;19.60;;;13.23;;
1887;SDS011;944;51.574;6.980;2023-06-22T04:49:18;18.00;;;14.33;;
1887;SDS011;944;51.574;6.980;2023-06-22T04:51:47;17.63;;;14.23;;
1887;SDS011;944;51.574;6.980;2023-06-22T04:54:16;18.77;;;13.83;;
1887;SDS011;944;51.574;6.980;2023-06-22T04:56:43;19.63;;;13.80;;
1887;SDS011;944;51.574;6.980;2023-06-22T04:59:13;21.33;;;14.53;;
1887;SDS011;944;51.574;6.980;2023-06-22T05:01:43;18.23;;;14.27;;
1887;SDS011;944;51.574;6.980;2023-06-22T05:04:10;20.60;;;14.30;;
1887;SDS011;944;51.574;6.980;2023-06-22T05:06:39;18.37;;;14.60;;
1887;SDS011;944;51.574;6.980;2023-06-22T05:09:06;18.47;;;12.90;;
1887;SDS011;944;51.574;6.980;2023-06-22T06:07:40;27.20;;;14.10;;
1887;SDS011;944;51.574;6.980;2023-06-22T06:10:15;17.67;;;13.33;;
1887;SDS011;944;51.574;6.980;2023-06-22T06:12:42;19.47;;;14.10;;
1887;SDS011;944;51.574;6.980;2023-06-22T06:15:10;17.67;;;13.87;;
1887;SDS011;944;51.574;6.980;2023-06-22T06:17:51;15.87;;;13.37;;
1887;SDS011;944;51.574;6.980;2023-06-22T06:20:21;23.47;;;16.00;;
1887;SDS011;944;51.574;6.980;2023-06-22T06:51:09;24.80;;;17.60;;
1887;SDS011;944;51.574;6.980;2023-06-22T06:53:39;24.30;;;18.30;;
1887;SDS011;944;51.574;6.980;2023-06-22T06:56:06;28.57;;;20.60;;
1887;SDS011;944;51.574;6.980;2023-06-22T06:58:40;28.37;;;21.70;;
1887;SDS011;944;51.574;6.980;2023-06-22T07:01:12;27.00;;;20.40;;
1887;SDS011;944;51.574;6.980;2023-06-22T07:26:46;29.07;;;22.20;;
1887;SDS011;944;51.574;6.980;2023-06-22T07:36:54;27.17;;;22.00;;
1887;SDS011;944;51.574;6.980;2023-06-22T08:23:49;26.10;;;20.30;;
1887;SDS011;944;51.574;6.980;2023-06-22T10:31:48;24.03;;;13.97;;
1887;SDS011;944;51.574;6.980;2023-06-22T10:34:32;17.60;;;14.23;;
1887;SDS011;944;51.574;6.980;2023-06-22T10:37:13;16.43;;;12.80;;
1887;SDS011;944;51.574;6.980;2023-06-22T10:40:39;15.50;;;12.70;;
1887;SDS011;944;51.574;6.980;2023-06-22T11:27:29;14.40;;;11.50;;
1887;SDS011;944;51.574;6.980;2023-06-22T11:30:22;17.83;;;12.10;;
1887;SDS011;944;51.574;6.980;2023-06-22T11:33:00;18.83;;;13.10;;
1887;SDS011;944;51.574;6.980;2023-06-22T11:35:29;17.10;;;13.27;;
1887;SDS011;944;51.574;6.980;2023-06-22T11:37:57;16.77;;;13.53;;
1887;SDS011;944;51.574;6.980;2023-06-22T11:40:24;17.03;;;13.23;;
1887;SDS011;944;51.574;6.980;2023-06-22T11:42:52;17.40;;;12.60;;
1887;SDS011;944;51.574;6.980;2023-06-22T11:45:22;16.90;;;12.93;;
1887;SDS011;944;51.574;6.980;2023-06-22T11:47:51;18.33;;;14.60;;
1887;SDS011;944;51.574;6.980;2023-06-22T11:50:22;17.30;;;14.27;;
1887;SDS011;944;51.574;6.980;2023-06-22T12:01:13;24.37;;;17.53;;
1887;SDS011;944;51.574;6.980;2023-06-22T12:08:06;26.27;;;19.27;;
1887;SDS011;944;51.574;6.980;2023-06-22T12:10:45;26.77;;;21.70;;
1887;SDS011;944;51.574;6.980;2023-06-22T12:13:15;36.80;;;25.90;;
1887;SDS011;944;51.574;6.980;2023-06-22T12:15:42;39.40;;;27.33;;
1887;SDS011;944;51.574;6.980;2023-06-22T12:18:12;45.57;;;31.70;;
1887;SDS011;944;51.574;6.980;2023-06-22T12:20:42;43.30;;;33.10;;
1887;SDS011;944;51.574;6.980;2023-06-22T12:23:18;49.63;;;35.43;;
1887;SDS011;944;51.574;6.980;2023-06-22T12:25:55;57.40;;;38.90;;
1887;SDS011;944;51.574;6.980;2023-06-22T12:28:49;58.80;;;41.07;;
1887;SDS011;944;51.574;6.980;2023-06-22T12:31:18;69.57;;;44.53;;
1887;SDS011;944;51.574;6.980;2023-06-22T12:33:47;64.37;;;45.30;;
1887;SDS011;944;51.574;6.980;2023-06-22T12:43:57;74.07;;;45.40;;
1887;SDS011;944;51.574;6.980;2023-06-22T13:47:04;47.90;;;36.30;;
1887;SDS011;944;51.574;6.980;2023-06-22T16:33:41;33.03;;;22.43;;
1887;SDS011;944;51.574;6.980;2023-06-22T16:36:14;37.10;;;21.90;;
1887;SDS011;944;51.574;6.980;2023-06-22T16:38:44;29.33;;;20.80;;
1887;SDS011;944;51.574;6.980;2023-06-22T16:41:11;28.23;;;19.30;;
1887;SDS011;944;51.574;6.980;2023-06-22T16:43:44;28.77;;;20.13;;
1887;SDS011;944;51.574;6.980;2023-06-22T16:46:30;28.27;;;18.00;;
1887;SDS011;944;51.574;6.980;2023-06-22T16:52:47;22.07;;;17.63;;
1887;SDS011;944;51.574;6.980;2023-06-22T16:55:20;31.13;;;19.10;;
1887;SDS011;944;51.574;6.980;2023-06-22T17:07:41;26.33;;;18.10;;
1887;SDS011;944;51.574;6.980;2023-06-22T19:00:14;65.03;;;40.80;;
1887;SDS011;944;51.574;6.980;2023-06-22T19:03:13;69.40;;;43.57;;
1887;SDS011;944;51.574;6.980;2023-06-22T19:10:25;72.93;;;48.20;;
1887;SDS011;944;51.574;6.980;2023-06-22T20:00:10;25.60;;;18.27;;
1887;SDS011;944;51.574;6.980;2023-06-22T20:03:01;23.63;;;17.80;;
1887;SDS011;944;51.574;6.980;2023-06-22T20:05:39;25.17;;;18.37;;
1887;SDS011;944;51.574;6.980;2023-06-22T20:08:15;40.23;;;19.70;;
1887;SDS011;944;51.574;6.980;2023-06-22T20:10:47;28.40;;;18.57;;
1887;SDS011;944;51.574;6.980;2023-06-22T20:13:15;26.20;;;18.10;;
1887;SDS011;944;51.574;6.980;2023-06-22T20:15:47;26.93;;;19.37;;
1887;SDS011;944;51.574;6.980;2023-06-22T20:18:17;23.43;;;17.57;;
1887;SDS011;944;51.574;6.980;2023-06-22T20:20:49;25.90;;;17.70;;
1887;SDS011;944;51.574;6.980;2023-06-22T20:23:17;27.77;;;20.00;;
1887;SDS011;944;51.574;6.980;2023-06-22T20:25:56;28.53;;;20.60;;
1887;SDS011;944;51.574;6.980;2023-06-22T20:28:31;30.53;;;19.00;;
1887;SDS011;944;51.574;6.980;2023-06-22T20:31:13;26.43;;;18.17;;
1887;SDS011;944;51.574;6.980;2023-06-22T20:34:08;29.77;;;19.20;;
1887;SDS011;944;51.574;6.980;2023-06-22T20:36:51;29.03;;;17.20;;
1887;SDS011;944;51.574;6.980;2023-06-22T20:39:23;22.73;;;15.00;;
1887;SDS011;944;51.574;6.980;2023-06-22T20:41:52;22.67;;;14.90;;
1887;SDS011;944;51.574;6.980;2023-06-22T20:44:30;31.10;;;14.03;;
1887;SDS011;944;51.574;6.980;2023-06-22T20:47:05;20.07;;;14.17;;
1887;SDS011;944;51.574;6.980;2023-06-22T20:49:52;23.67;;;13.77;;
1887;SDS011;944;51.574;6.980;2023-06-22T20:52:24;22.40;;;13.60;;
1887;SDS011;944;51.574;6.980;2023-06-22T20:58:34;15.87;;;12.07;;
1887;SDS011;944;51.574;6.980;2023-06-22T21:01:04;18.53;;;12.27;;
1887;SDS011;944;51.574;6.980;2023-06-22T21:03:37;19.13;;;12.97;;
